ellusionist.com alexa rank chart, ellusionist.com alexa rank daily changes

ellusionist.com alexa rank chart, ellusionist.com alexa rank daily changes

ellusionist.com
Actual rank:
70 815

RANK HISTORY

Date Rank Diff
2017/06/23 70 815 -1 030
2017/06/22 71 845 +692
2017/06/21 71 153 -615
2017/06/20 71 768 -511
2017/06/19 72 279 -2 201
2017/06/18 74 480 +387
2017/06/17 74 093 +1 614
2017/06/16 72 479 +249
2017/06/15 72 230 +455
2017/06/14 71 775 +931
2017/06/13 70 844 +654
2017/06/12 70 190 +473
2017/06/11 69 717 +448
2017/06/10 69 269 -72
2017/06/09 69 341 +369
2017/06/08 68 972 +1 673
2017/06/07 67 299 +2 554
2017/06/06 64 745 +481
2017/06/05 64 264 +451
2017/06/04 63 813 -220
2017/06/03 64 033 +510
2017/06/02 63 523 -255
2017/06/01 63 778 -833
2017/05/31 64 611 +143
2017/05/30 64 468 -425
2017/05/29 64 893 +164
2017/05/28 64 729 +883
2017/05/27 63 846 +105
2017/05/26 63 741 +2 026
2017/05/25 61 715 +270
2017/05/24 61 445 +88
2017/05/23 61 357 +1 285
2017/05/22 60 072 -5
2017/05/21 60 077 +1 894
2017/05/20 58 183 +135
2017/05/19 58 048 -186
2017/05/18 58 234 -166
2017/05/17 58 400 -511
2017/05/16 58 911 -723
2017/05/15 59 634 -316
2017/05/14 59 950 -239
2017/05/13 60 189 +260
2017/05/12 59 929 -244
2017/05/11 60 173 +167
2017/05/10 60 006 +477
2017/05/09 59 529 +636
2017/05/08 58 893 -3
2017/05/07 58 896 -383
2017/05/06 59 279 +444
2017/05/05 58 835 +259
2017/05/04 58 576 +299
2017/05/03 58 277 +609
2017/05/02 57 668 +75
2017/05/01 57 593 -262
2017/04/30 57 855 +1 016
2017/04/29 56 839 +490
2017/04/28 56 349 +562
2017/04/27 55 787 +295
2017/04/26 55 492 -1 082
2017/04/25 56 574 +927
2017/04/24 55 647

WIDGET FOR YOUR SITE

DOMAINS WITH THE NEAREST RANK

Domain Rank
blingee.com 70 810
wanqu.co 70 811
hpi.de 70 812
superhosting.bg 70 813
izaodao.com 70 814
ellusionist.com 70 815
theodinproject.com 70 816
i8866.com 70 817
movieshdgratis.com.mx 70 818
novatech.co.uk 70 819
yelp.it 70 820

DOMAINS WITH THE NEAREST RANK BY TLD .com

Domain Rank
taipeinavi.com 70 806
u-blox.com 70 808
open-cage.com 70 809
blingee.com 70 810
izaodao.com 70 814
ellusionist.com 70 815
theodinproject.com 70 816
i8866.com 70 817
bpm-power.com 70 821
5milesapp.com 70 822
tactical-life.com 70 826